Time;durP1;ratioP1;P1;durP2;ratioP2;P2;SDS_P1;SDS_P2;PMS_P1;PMS_P2;Temp;Humidity;BMP_temperature;BMP_pressure;BME280_temperature;BME280_humidity;BME280_pressure;Samples;Min_cycle;Max_cycle;Signal;HPM_P1;HPM_P2
2021/11/25 00:01:51;;;;;;;873.50;817.40;;;;;;;18.47;43.97;102063.41;5054136;28;20029;-34
2021/11/25 00:04:18;;;;;;;902.65;842.97;;;;;;;18.50;43.95;102065.88;5054040;28;20028;-31
2021/11/25 00:06:44;;;;;;;897.88;838.47;;;;;;;18.45;44.10;102063.53;5055300;28;20108;-32
2021/11/25 00:09:10;;;;;;;897.50;838.95;;;;;;;18.21;43.69;102024.44;5049675;28;20033;-32
2021/11/25 00:11:36;;;;;;;905.60;846.60;;;;;;;18.46;44.03;102059.03;5033256;28;20028;-34
2021/11/25 00:14:02;;;;;;;897.03;839.63;;;;;;;18.41;44.08;102059.41;5052277;28;20359;-32
2021/11/25 00:16:29;;;;;;;882.17;825.30;;;;;;;18.47;44.04;102066.09;5023173;28;20120;-33
2021/11/25 00:18:55;;;;;;;893.28;835.72;;;;;;;18.21;43.89;102026.25;5040067;28;20036;-34
2021/11/25 00:21:21;;;;;;;885.33;828.00;;;;;;;18.43;43.75;102068.13;5056814;28;20035;-35
2021/11/25 00:23:48;;;;;;;865.05;809.65;;;;;;;18.36;44.21;102051.75;5058172;28;20025;-35
2021/11/25 00:26:15;;;;;;;904.60;845.42;;;;;;;18.40;43.91;102063.00;5057590;28;20357;-36
2021/11/25 00:28:42;;;;;;;869.83;813.63;;;;;;;18.42;43.58;102066.41;5037692;28;20032;-31
2021/11/25 00:31:08;;;;;;;880.83;824.72;;;;;;;18.40;43.05;102063.00;5057314;28;20473;-34
2021/11/25 00:33:34;;;;;;;910.72;851.30;;;;;;;18.41;43.40;102059.41;5056921;28;20108;-31
2021/11/25 00:36:00;;;;;;;881.47;824.83;;;;;;;18.39;43.56;102066.63;5056558;28;20108;-34
2021/11/25 00:38:27;;;;;;;889.03;831.15;;;;;;;18.39;43.71;102066.63;5049038;28;20033;-33
2021/11/25 00:40:53;;;;;;;897.45;839.15;;;;;;;18.36;43.74;102066.84;5049968;28;20033;-31
2021/11/25 00:43:21;;;;;;;899.78;841.13;;;;;;;18.36;43.54;102067.69;5051527;28;20025;-34
2021/11/25 00:45:48;;;;;;;887.65;830.63;;;;;;;18.36;43.95;102067.69;5053576;28;20028;-33
2021/11/25 00:48:14;;;;;;;905.80;847.00;;;;;;;18.36;43.75;102072.16;5056230;28;20385;-33
2021/11/25 00:50:40;;;;;;;904.63;845.72;;;;;;;18.36;43.83;102075.66;5056394;28;20471;-37
2021/11/25 00:53:06;;;;;;;883.13;825.85;;;;;;;18.35;43.63;102079.31;5056682;28;20024;-31
2021/11/25 00:55:33;;;;;;;861.60;807.38;;;;;;;18.21;43.59;102060.84;5057242;28;20024;-31
2021/11/25 00:57:59;;;;;;;872.20;816.22;;;;;;;18.33;43.41;102083.03;5055041;28;20029;-33
2021/11/25 01:00:25;;;;;;;877.40;821.45;;;;;;;18.33;43.46;102085.69;5056713;28;20036;-30
2021/11/25 01:02:51;;;;;;;895.15;837.15;;;;;;;18.32;43.51;102084.00;5056912;28;20085;-37
2021/11/25 01:05:18;;;;;;;896.83;838.90;;;;;;;18.28;43.64;102074.53;5054966;28;20025;-34
2021/11/25 01:07:45;;;;;;;903.53;845.70;;;;;;;18.12;43.70;102059.66;5054147;28;20028;-33
2021/11/25 01:10:12;;;;;;;896.25;839.13;;;;;;;18.31;43.43;102085.78;5054992;28;20098;-36
2021/11/25 01:12:39;;;;;;;901.92;844.20;;;;;;;18.30;43.64;102084.09;5057770;28;20029;-30
2021/11/25 01:15:06;;;;;;;906.78;847.65;;;;;;;18.30;43.61;102093.88;5050689;28;20056;-35
2021/11/25 01:17:32;;;;;;;884.67;828.03;;;;;;;18.30;43.43;102092.09;5048234;28;20025;-31
2021/11/25 01:19:58;;;;;;;876.42;820.92;;;;;;;18.32;43.28;102092.81;5044108;28;20135;-31
2021/11/25 01:22:24;;;;;;;872.83;816.50;;;;;;;18.29;43.16;102086.88;5061123;28;20090;-36
2021/11/25 01:24:51;;;;;;;881.40;824.55;;;;;;;18.32;42.94;102090.16;5051594;28;20402;-32
2021/11/25 01:27:17;;;;;;;898.35;840.75;;;;;;;18.22;43.02;102081.97;5047998;28;20035;-30
2021/11/25 01:29:43;;;;;;;906.80;847.75;;;;;;;18.28;43.07;102096.66;5049596;28;20022;-33
2021/11/25 01:32:10;;;;;;;895.40;836.90;;;;;;;18.27;42.88;102099.44;5038121;28;20067;-31
2021/11/25 01:34:36;;;;;;;896.35;838.63;;;;;;;18.25;43.22;102102.19;5051463;28;20034;-34
2021/11/25 01:37:02;;;;;;;908.45;848.78;;;;;;;18.21;43.20;102101.56;5054710;28;20037;-31
2021/11/25 01:39:28;;;;;;;895.85;837.90;;;;;;;18.23;43.07;102110.28;5054853;28;20467;-33
2021/11/25 01:41:54;;;;;;;900.70;842.28;;;;;;;18.22;42.83;102110.38;5038233;28;20044;-31
2021/11/25 01:44:21;;;;;;;888.47;830.97;;;;;;;18.24;43.03;102114.66;5049351;28;20044;-32
2021/11/25 01:46:47;;;;;;;876.65;820.40;;;;;;;18.24;42.93;102109.31;5066787;28;20031;-32
2021/11/25 01:49:13;;;;;;;893.05;834.92;;;;;;;18.26;42.79;102105.69;5051935;28;20378;-30
2021/11/25 01:51:40;;;;;;;889.10;832.65;;;;;;;18.22;42.49;102113.88;5054188;28;20043;-36
2021/11/25 01:54:06;;;;;;;884.72;828.25;;;;;;;18.21;42.40;102116.66;5039810;28;20067;-31
2021/11/25 01:56:32;;;;;;;901.90;843.33;;;;;;;18.19;42.61;102113.25;5051701;28;20029;-33
2021/11/25 01:58:59;;;;;;;918.78;858.50;;;;;;;18.17;42.59;102113.34;5065540;28;20095;-32
2021/11/25 02:01:32;;;;;;;917.20;857.20;;;;;;;18.17;42.77;102116.00;5055566;28;20028;-34
2021/11/25 02:03:58;;;;;;;912.08;853.20;;;;;;;18.15;42.63;102117.91;5081082;28;20023;-30
2021/11/25 02:06:25;;;;;;;912.13;853.25;;;;;;;18.14;42.86;102120.69;5067351;28;20037;-30
2021/11/25 02:08:51;;;;;;;901.58;843.70;;;;;;;18.14;42.67;102118.03;5079009;28;20349;-33
2021/11/25 02:11:17;;;;;;;878.95;822.60;;;;;;;18.06;42.74;102094.66;5045295;28;20451;-33
2021/11/25 02:13:43;;;;;;;857.92;803.17;;;;;;;18.16;42.58;102114.31;5040595;28;20032;-36
2021/11/25 02:16:10;;;;;;;880.38;824.50;;;;;;;18.15;42.22;102111.75;5050844;28;20401;-32
2021/11/25 02:18:36;;;;;;;887.20;830.30;;;;;;;18.14;42.06;102118.91;5064085;28;20366;-34
2021/11/25 02:21:02;;;;;;;893.78;836.63;;;;;;;18.10;42.08;102129.84;5048129;28;20029;-30
2021/11/25 02:23:29;;;;;;;897.78;839.70;;;;;;;18.10;42.37;102136.00;5045256;28;20476;-34
2021/11/25 02:25:55;;;;;;;894.92;837.40;;;;;;;18.05;42.45;102148.78;5058726;28;20453;-30
2021/11/25 02:28:23;;;;;;;895.22;837.58;;;;;;;18.07;42.53;102154.84;5048441;28;20374;-31
2021/11/25 02:30:49;;;;;;;924.03;863.13;;;;;;;18.08;42.27;102163.66;5057799;28;20024;-31
2021/11/25 02:33:15;;;;;;;923.20;863.63;;;;;;;17.89;42.33;102133.03;5053951;28;20028;-30
2021/11/25 02:35:42;;;;;;;889.85;832.38;;;;;;;18.05;42.23;102154.09;5052856;28;20059;-30
2021/11/25 02:38:09;;;;;;;896.78;838.92;;;;;;;18.06;42.17;102163.75;5053490;28;20029;-30
2021/11/25 02:40:37;;;;;;;901.63;843.33;;;;;;;17.83;42.14;102139.56;5050610;28;20032;-32
2021/11/25 02:43:10;;;;;;;886.83;830.00;;;;;;;18.02;41.85;102165.78;5036567;28;20032;-31
2021/11/25 02:45:51;;;;;;;905.08;846.75;;;;;;;18.02;41.78;102165.78;5052252;28;20029;-31
2021/11/25 02:48:19;;;;;;;887.22;829.13;;;;;;;17.77;42.16;102134.69;5058659;28;20024;-34
2021/11/25 02:50:45;;;;;;;879.70;822.85;;;;;;;17.97;42.36;102172.38;5084853;28;20029;-33
2021/11/25 02:53:12;;;;;;;898.92;840.83;;;;;;;17.97;42.18;102167.91;5073002;28;20032;-31
2021/11/25 02:55:39;;;;;;;891.28;834.13;;;;;;;17.96;42.19;102176.84;5050702;28;20346;-35
2021/11/25 02:58:05;;;;;;;899.80;841.97;;;;;;;17.96;42.12;102179.50;5053273;28;20508;-30
2021/11/25 03:00:35;;;;;;;895.50;837.42;;;;;;;17.77;42.16;102155.94;5055926;28;20113;-32
2021/11/25 03:03:04;;;;;;;894.38;837.40;;;;;;;17.80;42.00;102166.38;5066712;28;20071;-35
2021/11/25 03:05:30;;;;;;;892.80;834.53;;;;;;;17.95;41.83;102192.91;5049162;28;20039;-32
2021/11/25 03:07:59;;;;;;;868.50;813.25;;;;;;;17.97;41.82;102189.16;5054139;28;20080;-31
2021/11/25 03:10:25;;;;;;;872.13;817.00;;;;;;;17.99;41.77;102191.72;5052124;28;20029;-30
2021/11/25 03:12:52;;;;;;;898.60;840.85;;;;;;;17.97;41.80;102199.78;5053188;28;20043;-34
2021/11/25 03:15:18;;;;;;;886.13;829.15;;;;;;;17.94;41.97;102202.66;5036609;28;20363;-33
2021/11/25 03:17:44;;;;;;;884.88;827.58;;;;;;;17.92;41.98;102203.72;5039475;28;20455;-31
2021/11/25 03:20:11;;;;;;;816.08;760.50;;;;;;;17.70;35.41;102202.47;5029038;28;20131;-35
2021/11/25 03:22:37;;;;;;;840.58;783.03;;;;;;;17.08;34.78;102211.78;5052197;28;20021;-40
2021/11/25 03:25:04;;;;;;;824.95;769.47;;;;;;;16.80;35.10;102217.09;5062956;28;20024;-33
2021/11/25 03:27:30;;;;;;;839.17;783.65;;;;;;;16.51;36.02;102233.00;5052040;28;20035;-31
2021/11/25 03:29:57;;;;;;;862.72;806.00;;;;;;;16.78;36.54;102230.44;5053006;28;20355;-32
2021/11/25 03:32:23;;;;;;;863.42;807.88;;;;;;;16.94;36.57;102230.38;5042525;28;20033;-30
2021/11/25 03:34:49;;;;;;;844.30;790.30;;;;;;;17.08;37.58;102238.31;5053712;28;20490;-32
2021/11/25 03:37:15;;;;;;;861.65;806.95;;;;;;;17.18;37.90;102241.25;5053071;28;20439;-32
2021/11/25 03:39:41;;;;;;;870.67;815.47;;;;;;;17.08;37.99;102222.41;5055445;28;20029;-34
2021/11/25 03:42:08;;;;;;;886.45;829.13;;;;;;;17.31;37.86;102248.44;5071106;28;20462;-31
2021/11/25 03:44:34;;;;;;;889.65;832.53;;;;;;;17.32;38.65;102245.69;5052291;28;20025;-35
2021/11/25 03:47:00;;;;;;;845.95;791.28;;;;;;;17.31;38.46;102243.13;5052709;28;20404;-35
2021/11/25 03:49:26;;;;;;;874.47;816.85;;;;;;;17.32;38.77;102247.47;5052900;28;20066;-33
2021/11/25 03:51:52;;;;;;;905.80;847.20;;;;;;;17.31;39.01;102243.97;5052569;28;20517;-31
2021/11/25 03:54:18;;;;;;;880.30;824.50;;;;;;;17.32;39.13;102251.00;5052408;28;20032;-33
2021/11/25 03:56:45;;;;;;;902.88;844.53;;;;;;;17.36;39.23;102249.84;5052926;28;20515;-31
2021/11/25 03:59:11;;;;;;;872.63;817.47;;;;;;;17.38;39.28;102253.25;5049455;28;20025;-34
2021/11/25 04:01:37;;;;;;;862.45;808.00;;;;;;;17.42;39.23;102257.41;5045403;28;20044;-35
2021/11/25 04:04:03;;;;;;;843.05;790.13;;;;;;;17.46;39.17;102252.75;5047149;28;20036;-34
2021/11/25 04:06:29;;;;;;;874.15;819.20;;;;;;;17.45;39.18;102246.59;5043973;28;21370;-32
2021/11/25 04:08:56;;;;;;;890.35;833.20;;;;;;;17.42;39.77;102245.94;5042406;28;20025;-36
2021/11/25 04:11:22;;;;;;;864.28;809.25;;;;;;;17.40;39.98;102242.53;5050281;28;20036;-33
2021/11/25 04:13:48;;;;;;;932.67;870.88;;;;;;;17.38;39.99;102245.28;5047717;28;20048;-32
2021/11/25 04:16:14;;;;;;;922.60;862.67;;;;;;;17.40;39.97;102250.50;5050645;28;20041;-36
2021/11/25 04:18:40;;;;;;;886.65;829.55;;;;;;;17.38;40.08;102244.44;5048734;28;20029;-34
2021/11/25 04:21:07;;;;;;;876.42;820.05;;;;;;;17.31;40.12;102236.00;5046264;28;20516;-32
2021/11/25 04:23:33;;;;;;;875.90;819.85;;;;;;;17.40;40.05;102253.16;5065663;28;20120;-31
2021/11/25 04:25:59;;;;;;;880.72;825.25;;;;;;;17.40;40.03;102251.34;5049133;28;20056;-32
2021/11/25 04:28:26;;;;;;;869.28;814.85;;;;;;;17.43;40.18;102255.63;5047790;28;20100;-32
2021/11/25 04:35:28;;;;;;;851.25;796.75;;;;;;;17.46;40.09;102256.28;5043977;28;20143;-34
2021/11/25 04:36:22;;;;;;;883.05;827.90;;;;;;;17.27;40.33;102242.47;5050074;28;20043;-35
2021/11/25 04:38:48;;;;;;;892.20;835.45;;;;;;;17.25;40.58;102239.03;5062678;28;20035;-33
2021/11/25 04:41:14;;;;;;;956.72;892.08;;;;;;;17.37;40.67;102262.16;5047665;28;20086;-32
2021/11/25 04:43:41;;;;;;;898.58;841.03;;;;;;;17.39;40.52;102252.31;5051868;28;20448;-31
2021/11/25 04:46:07;;;;;;;888.08;830.83;;;;;;;17.40;40.73;102264.63;5057057;28;20104;-31
2021/11/25 04:48:33;;;;;;;901.40;843.42;;;;;;;17.35;40.78;102266.72;5056348;28;20067;-33
2021/11/25 04:50:59;;;;;;;892.13;834.45;;;;;;;17.37;40.81;102262.16;5057282;28;20021;-33
2021/11/25 04:53:26;;;;;;;890.20;833.80;;;;;;;17.26;40.82;102238.09;5056855;28;20020;-33
2021/11/25 04:55:52;;;;;;;886.25;829.38;;;;;;;17.42;40.51;102268.03;5051249;28;20041;-33
2021/11/25 04:58:18;;;;;;;891.05;834.33;;;;;;;17.40;40.18;102275.25;5047450;28;20025;-35
2021/11/25 05:00:45;;;;;;;885.28;828.83;;;;;;;17.24;40.48;102240.00;5061185;28;20020;-33
2021/11/25 05:03:11;;;;;;;880.30;824.22;;;;;;;17.37;40.73;102271.94;5075994;28;20035;-37
2021/11/25 05:05:37;;;;;;;890.30;832.67;;;;;;;17.34;40.74;102272.13;5075942;28;20394;-35
2021/11/25 05:08:04;;;;;;;883.65;827.28;;;;;;;17.33;40.80;102279.25;5051382;28;20056;-35
2021/11/25 05:10:30;;;;;;;887.28;830.10;;;;;;;17.32;41.10;102271.38;5040722;28;20052;-34
2021/11/25 05:12:56;;;;;;;872.63;816.35;;;;;;;17.32;40.91;102282.00;5056571;28;20485;-36
2021/11/25 05:15:23;;;;;;;890.72;833.55;;;;;;;17.28;41.13;102276.03;5052160;28;20033;-37
2021/11/25 05:17:50;;;;;;;869.35;814.03;;;;;;;17.20;40.49;102260.59;5051724;28;20092;-32
2021/11/25 05:20:17;;;;;;;860.65;806.85;;;;;;;17.37;40.81;102291.38;5055290;28;20029;-31
2021/11/25 05:22:43;;;;;;;888.10;831.22;;;;;;;17.05;40.81;102229.69;5050544;28;20119;-32
2021/11/25 05:25:10;;;;;;;879.33;823.75;;;;;;;17.39;40.89;102289.50;5071683;28;20028;-36
2021/11/25 05:27:36;;;;;;;870.17;815.17;;;;;;;17.40;40.82;102295.63;5054861;28;20043;-32
2021/11/25 05:30:04;;;;;;;895.40;838.05;;;;;;;17.33;41.10;102287.22;5053819;28;20025;-32
2021/11/25 05:32:30;;;;;;;897.40;840.40;;;;;;;17.24;41.15;102277.19;5055295;28;20032;-33
2021/11/25 05:34:56;;;;;;;878.22;822.33;;;;;;;17.28;41.16;102289.31;5056109;28;20017;-35
2021/11/25 05:37:23;;;;;;;886.75;830.30;;;;;;;17.27;41.27;102287.59;5055968;28;20017;-31
2021/11/25 05:39:49;;;;;;;902.95;844.20;;;;;;;17.24;41.22;102283.31;5056093;28;20053;-35
2021/11/25 05:42:15;;;;;;;878.72;822.72;;;;;;;17.26;41.17;102294.69;5055242;28;20565;-34
2021/11/25 05:44:43;;;;;;;897.33;839.53;;;;;;;17.15;41.09;102272.47;5055523;28;20052;-35
2021/11/25 05:47:09;;;;;;;846.33;793.20;;;;;;;17.26;40.86;102291.19;5055791;28;20055;-33
2021/11/25 05:49:35;;;;;;;862.38;807.88;;;;;;;17.31;40.75;102296.22;5055059;28;20358;-35
2021/11/25 05:52:01;;;;;;;873.03;817.38;;;;;;;16.98;40.27;102244.31;5069999;28;20036;-33
2021/11/25 05:54:27;;;;;;;874.88;819.38;;;;;;;17.05;40.47;102266.84;5070169;28;20032;-34
2021/11/25 05:56:54;;;;;;;891.38;833.70;;;;;;;17.23;40.85;102297.56;5052315;28;20025;-33
2021/11/25 05:59:20;;;;;;;887.05;831.08;;;;;;;17.20;40.93;102304.88;5052443;28;20506;-37
2021/11/25 06:01:46;;;;;;;875.60;819.22;;;;;;;17.20;40.76;102294.25;5053751;28;20332;-34
2021/11/25 06:04:13;;;;;;;878.05;821.08;;;;;;;16.88;40.97;102257.31;5036483;28;20082;-33
2021/11/25 06:06:39;;;;;;;853.58;800.05;;;;;;;17.18;40.91;102299.66;5069966;28;20020;-34
2021/11/25 06:09:05;;;;;;;882.40;826.10;;;;;;;17.03;40.78;102287.34;5055668;28;20020;-33
2021/11/25 06:11:31;;;;;;;891.20;834.40;;;;;;;17.17;40.75;102299.75;5055283;28;20075;-35
2021/11/25 06:13:57;;;;;;;876.17;820.25;;;;;;;17.18;40.76;102296.13;5065976;28;20021;-33
2021/11/25 06:16:23;;;;;;;864.30;809.58;;;;;;;17.18;40.35;102301.44;5051075;28;20422;-34
2021/11/25 06:18:49;;;;;;;858.25;804.03;;;;;;;17.19;40.24;102300.50;5034529;28;20025;-33
2021/11/25 06:21:16;;;;;;;862.55;807.80;;;;;;;17.17;40.46;102303.25;5041491;28;20079;-33
2021/11/25 06:23:42;;;;;;;859.88;805.10;;;;;;;17.15;40.67;102297.19;5054404;28;20036;-34
2021/11/25 06:26:08;;;;;;;870.20;814.85;;;;;;;17.14;40.55;102311.41;5050299;28;20450;-37
2021/11/25 06:28:34;;;;;;;885.65;828.88;;;;;;;17.10;40.63;102312.56;5055330;28;20025;-36
2021/11/25 06:31:00;;;;;;;878.60;822.22;;;;;;;17.07;40.66;102305.66;5055051;28;20025;-35
2021/11/25 06:33:27;;;;;;;888.92;832.53;;;;;;;17.07;40.57;102310.94;5054021;28;20028;-35
2021/11/25 06:35:53;;;;;;;879.25;822.40;;;;;;;16.73;40.62;102270.56;5047615;28;20099;-39
2021/11/25 06:38:20;;;;;;;868.15;813.15;;;;;;;17.02;40.54;102317.47;5037411;28;20036;-32
2021/11/25 06:40:46;;;;;;;854.65;800.85;;;;;;;17.05;40.52;102312.81;5055013;28;20113;-35
2021/11/25 06:43:12;;;;;;;878.80;822.47;;;;;;;17.08;40.20;102303.84;5044025;28;20459;-32
2021/11/25 06:45:40;;;;;;;864.25;810.08;;;;;;;17.01;40.24;102299.84;5034704;28;20040;-35
2021/11/25 06:48:07;;;;;;;849.65;795.85;;;;;;;17.09;40.10;102309.06;5040803;28;20020;-33
2021/11/25 06:50:33;;;;;;;864.90;809.65;;;;;;;17.05;40.46;102302.19;5047800;28;20025;-33
2021/11/25 06:52:59;;;;;;;872.10;816.70;;;;;;;17.05;40.73;102311.97;5053921;28;20410;-33
2021/11/25 06:55:25;;;;;;;870.10;815.33;;;;;;;17.03;40.58;102305.91;5050974;28;20060;-36
2021/11/25 06:57:52;;;;;;;874.85;819.50;;;;;;;16.97;40.55;102299.19;5052377;28;20078;-39
2021/11/25 07:00:21;;;;;;;883.70;826.90;;;;;;;16.97;40.51;102303.66;5049463;28;20127;-34
2021/11/25 07:02:47;;;;;;;867.28;812.58;;;;;;;16.94;40.50;102299.38;5051429;28;20032;-32
2021/11/25 07:05:14;;;;;;;864.53;809.80;;;;;;;16.95;40.40;102303.75;5070019;28;20047;-32
2021/11/25 07:07:40;;;;;;;838.42;785.42;;;;;;;16.97;40.32;102315.13;5048665;28;20035;-33
2021/11/25 07:10:13;;;;;;;860.97;806.88;;;;;;;16.89;40.55;102296.16;5053683;28;20024;-33
2021/11/25 07:12:39;;;;;;;863.70;809.60;;;;;;;16.91;40.51;102295.13;5054414;28;20102;-31
2021/11/25 07:15:10;;;;;;;845.10;792.08;;;;;;;17.00;39.87;102322.91;5069806;28;20514;-32
2021/11/25 07:17:36;;;;;;;862.75;808.83;;;;;;;16.99;40.24;102309.72;5053566;28;20124;-34
2021/11/25 07:20:03;;;;;;;858.65;804.83;;;;;;;16.97;40.36;102322.22;5054284;28;20029;-34
2021/11/25 07:22:29;;;;;;;857.50;803.72;;;;;;;16.92;40.45;102323.34;5054408;28;20025;-33
2021/11/25 07:24:56;;;;;;;849.88;796.17;;;;;;;16.54;40.58;102262.84;5053946;28;20075;-33
2021/11/25 07:27:22;;;;;;;885.78;829.15;;;;;;;16.88;40.48;102318.34;5069522;28;20415;-34
2021/11/25 07:29:49;;;;;;;862.70;807.80;;;;;;;16.86;40.47;102322.88;5053333;28;20025;-32
2021/11/25 07:32:15;;;;;;;860.42;806.17;;;;;;;16.88;40.45;102326.31;5053388;28;20063;-33
2021/11/25 07:34:42;;;;;;;845.85;791.55;;;;;;;16.63;40.39;102284.44;5053684;28;20024;-33
2021/11/25 07:37:08;;;;;;;865.90;811.00;;;;;;;16.82;40.39;102318.66;5049838;28;20032;-33
2021/11/25 07:39:34;;;;;;;873.63;818.35;;;;;;;16.86;40.35;102323.75;5053154;28;20401;-36
2021/11/25 07:42:01;;;;;;;853.95;799.60;;;;;;;16.87;40.35;102325.44;5054204;28;20021;-34
2021/11/25 07:44:28;;;;;;;867.72;811.58;;;;;;;16.88;40.20;102328.97;5054105;28;20104;-33
2021/11/25 07:46:54;;;;;;;876.58;820.55;;;;;;;16.78;40.18;102314.50;5054441;28;20362;-32
2021/11/25 07:49:20;;;;;;;865.25;810.50;;;;;;;16.86;40.50;102325.50;5054143;28;20446;-33
2021/11/25 07:51:47;;;;;;;856.60;802.53;;;;;;;16.83;40.31;102323.91;5041984;28;20068;-33
2021/11/25 07:54:13;;;;;;;847.60;794.72;;;;;;;16.83;40.44;102328.34;5037397;28;20024;-33
2021/11/25 07:56:41;;;;;;;873.10;817.47;;;;;;;16.81;40.34;102330.25;5049486;28;20017;-32
2021/11/25 07:59:07;;;;;;;890.97;833.47;;;;;;;16.62;40.26;102304.81;5053277;28;20056;-34
2021/11/25 08:01:33;;;;;;;858.65;805.20;;;;;;;16.79;40.30;102337.41;5056153;28;20445;-32
2021/11/25 08:03:59;;;;;;;866.30;811.55;;;;;;;16.73;40.22;102334.22;5053127;28;20499;-32
2021/11/25 08:06:26;;;;;;;865.97;811.45;;;;;;;16.76;40.24;102340.28;5047857;28;20021;-36
2021/11/25 08:08:52;;;;;;;870.20;814.75;;;;;;;16.75;40.48;102341.22;5061972;28;20029;-33
2021/11/25 08:11:19;;;;;;;880.45;825.20;;;;;;;16.78;40.29;102344.53;5055056;28;20029;-35
2021/11/25 08:13:45;;;;;;;850.17;796.83;;;;;;;16.80;40.32;102345.28;5053919;28;20025;-32
2021/11/25 08:16:15;;;;;;;872.90;818.38;;;;;;;16.77;40.32;102344.63;5043812;28;20551;-33
2021/11/25 08:18:44;;;;;;;883.75;827.78;;;;;;;16.73;40.57;102350.13;5057138;28;20033;-35
2021/11/25 08:21:10;;;;;;;853.50;799.60;;;;;;;16.74;40.38;102350.97;5057451;28;20035;-32
2021/11/25 08:23:37;;;;;;;853.92;800.30;;;;;;;16.71;40.33;102361.75;5056624;28;20041;-34
2021/11/25 08:26:03;;;;;;;873.85;818.38;;;;;;;16.57;40.35;102338.72;5055974;28;20087;-39
2021/11/25 08:28:29;;;;;;;874.20;819.80;;;;;;;16.68;40.44;102357.50;5049651;28;20035;-32
2021/11/25 08:30:55;;;;;;;868.20;813.58;;;;;;;16.57;40.30;102346.66;5055105;28;20031;-35
2021/11/25 08:33:21;;;;;;;873.58;818.30;;;;;;;16.59;40.08;102352.72;5053015;28;20025;-34
2021/11/25 08:35:48;;;;;;;881.63;825.15;;;;;;;16.45;40.28;102334.13;5044924;28;20458;-33
2021/11/25 08:38:15;;;;;;;866.38;811.60;;;;;;;16.67;40.32;102377.00;5055936;28;20078;-34
2021/11/25 08:40:41;;;;;;;875.75;820.03;;;;;;;16.56;40.28;102341.44;5052687;28;20040;-35
2021/11/25 08:43:07;;;;;;;871.65;816.60;;;;;;;16.70;40.17;102360.91;5050340;28;20367;-33
2021/11/25 08:45:34;;;;;;;871.72;816.67;;;;;;;16.68;40.26;102364.59;5053168;28;20091;-35
2021/11/25 08:48:02;;;;;;;844.83;791.67;;;;;;;16.66;40.36;102364.72;5046863;28;20021;-35
2021/11/25 08:50:29;;;;;;;868.15;812.63;;;;;;;16.63;40.20;102362.22;5050200;28;20104;-34
2021/11/25 08:52:55;;;;;;;854.92;800.58;;;;;;;16.61;40.36;102364.13;5061521;28;20028;-32
2021/11/25 08:55:21;;;;;;;857.40;802.75;;;;;;;16.59;40.04;102360.69;5052231;28;20576;-31
2021/11/25 08:57:48;;;;;;;866.20;810.72;;;;;;;16.58;40.27;102369.59;5055714;28;20033;-31
2021/11/25 09:00:15;;;;;;;854.10;800.45;;;;;;;16.58;40.24;102360.81;5055995;28;20017;-36
2021/11/25 09:02:41;;;;;;;851.33;797.80;;;;;;;16.42;40.30;102339.63;5038332;28;20025;-34
2021/11/25 09:05:09;;;;;;;857.35;803.38;;;;;;;16.53;40.24;102356.59;5046634;28;20021;-33
2021/11/25 09:07:36;;;;;;;855.42;801.45;;;;;;;16.49;40.27;102349.78;5053916;28;20059;-32
2021/11/25 09:10:02;;;;;;;875.80;820.97;;;;;;;16.57;40.31;102354.63;5049015;28;20026;-34
2021/11/25 09:12:29;;;;;;;863.90;808.70;;;;;;;16.57;40.16;102353.78;5071475;28;20083;-33
2021/11/25 09:14:55;;;;;;;846.72;793.75;;;;;;;16.58;40.13;102355.50;5053825;28;20025;-36
2021/11/25 09:17:21;;;;;;;857.25;803.33;;;;;;;16.55;40.28;102356.50;5053617;28;20032;-33
2021/11/25 09:19:47;;;;;;;842.00;789.08;;;;;;;16.52;40.31;102354.91;5054856;28;20025;-32
2021/11/25 09:22:15;;;;;;;853.45;799.70;;;;;;;16.04;40.42;102292.34;5047505;28;20039;-35
2021/11/25 09:24:41;;;;;;;875.00;820.97;;;;;;;16.50;40.34;102355.94;5054994;28;20029;-36
2021/11/25 09:27:08;;;;;;;867.63;812.38;;;;;;;16.49;40.21;102355.09;5053050;28;20501;-34
2021/11/25 09:29:34;;;;;;;870.97;815.92;;;;;;;16.46;40.19;102357.91;5048434;28;20443;-33
2021/11/25 09:32:00;;;;;;;872.42;817.53;;;;;;;16.49;40.04;102364.84;5051133;28;20029;-33
2021/11/25 09:34:26;;;;;;;859.47;805.30;;;;;;;16.44;40.06;102365.09;5044695;28;20021;-34
2021/11/25 09:36:52;;;;;;;860.80;806.65;;;;;;;16.45;40.13;102356.22;5052477;28;20035;-33
2021/11/25 09:39:20;;;;;;;858.92;804.47;;;;;;;16.50;40.16;102364.75;5051276;28;20036;-33
2021/11/25 09:41:47;;;;;;;865.88;811.85;;;;;;;16.50;39.95;102361.25;5064246;28;20033;-32
2021/11/25 09:44:13;;;;;;;873.38;818.40;;;;;;;16.49;39.96;102364.84;5050592;28;20506;-32
2021/11/25 09:46:39;;;;;;;863.63;808.63;;;;;;;16.42;40.07;102361.69;5049852;28;20060;-33
2021/11/25 09:49:06;;;;;;;858.72;804.88;;;;;;;16.44;40.08;102361.63;5050035;28;20112;-36
2021/11/25 09:51:32;;;;;;;854.72;801.08;;;;;;;16.40;40.16;102349.44;5050512;28;20466;-32
2021/11/25 09:53:58;;;;;;;876.53;821.45;;;;;;;16.38;40.16;102354.88;5048983;28;20052;-34
2021/11/25 09:56:25;;;;;;;857.33;803.53;;;;;;;16.39;40.14;102353.06;5049418;28;20021;-34
2021/11/25 09:58:51;;;;;;;856.13;802.50;;;;;;;16.27;39.95;102344.91;5050354;28;20108;-34
2021/11/25 10:01:22;;;;;;;855.45;800.92;;;;;;;16.31;40.07;102346.41;5049087;28;20028;-34
2021/11/25 10:03:49;;;;;;;868.05;813.15;;;;;;;16.37;40.04;102353.16;5054020;28;20059;-32
2021/11/25 10:06:26;;;;;;;861.08;806.72;;;;;;;16.35;40.03;102349.75;5054913;28;20025;-33
2021/11/25 10:08:52;;;;;;;851.97;798.95;;;;;;;16.42;39.74;102360.84;5051925;28;20029;-34
2021/11/25 10:11:24;;;;;;;865.33;810.70;;;;;;;16.38;39.85;102361.94;5055722;28;20455;-33
2021/11/25 10:13:55;;;;;;;862.53;808.25;;;;;;;16.35;40.08;102366.50;5055709;28;20056;-40
2021/11/25 10:16:30;;;;;;;857.43;804.47;;;;;;;16.31;39.97;102356.19;5043530;28;20463;-31
2021/11/25 10:18:57;;;;;;;846.40;793.05;;;;;;;16.19;40.00;102352.44;5049600;28;20306;-33
2021/11/25 10:21:27;;;;;;;871.63;816.33;;;;;;;16.27;40.16;102360.81;5054228;28;20389;-34
2021/11/25 10:23:55;;;;;;;834.22;781.53;;;;;;;16.29;40.15;102366.88;5070102;28;20056;-33
2021/11/25 10:26:23;;;;;;;874.80;820.70;;;;;;;16.29;40.25;102364.22;5043491;28;20061;-33
2021/11/25 10:28:56;;;;;;;865.47;810.78;;;;;;;16.25;40.16;102360.00;5064405;28;20021;-33
2021/11/25 10:31:36;;;;;;;862.13;808.25;;;;;;;16.09;40.14;102341.50;5048368;28;20048;-36
2021/11/25 10:34:13;;;;;;;858.78;805.03;;;;;;;16.26;40.13;102364.38;5053264;28;20048;-35
2021/11/25 10:39:48;;;;;;;856.95;804.15;;;;;;;16.29;40.09;102371.28;5039496;28;20033;-33
2021/11/25 10:42:15;;;;;;;846.10;793.17;;;;;;;16.27;40.10;102367.88;5054643;28;20082;-34
2021/11/25 10:44:46;;;;;;;845.15;792.15;;;;;;;16.23;40.20;102372.50;5044909;28;20035;-34
2021/11/25 10:47:14;;;;;;;873.25;818.25;;;;;;;16.22;40.19;102373.47;5053681;28;20036;-33
2021/11/25 10:49:48;;;;;;;859.92;805.05;;;;;;;16.15;40.16;102362.34;5053905;28;20025;-36
2021/11/25 10:52:25;;;;;;;855.75;801.97;;;;;;;16.20;40.05;102377.13;5068281;28;20455;-33
2021/11/25 10:54:55;;;;;;;851.67;798.95;;;;;;;16.21;40.06;102373.56;5051077;28;20040;-32
2021/11/25 10:57:22;;;;;;;851.40;798.22;;;;;;;16.20;40.28;102374.47;5054816;28;20021;-34
2021/11/25 10:59:50;;;;;;;869.03;814.40;;;;;;;16.05;40.48;102365.63;5054120;28;20086;-35